createdAt,value
2023-05-22T00:02:29.014Z,15.66
2023-05-22T00:05:18.469Z,15.60
2023-05-22T00:08:06.649Z,15.55
2023-05-22T00:10:54.377Z,15.55
2023-05-22T00:13:41.376Z,15.57
2023-05-22T00:16:28.398Z,15.50
2023-05-22T00:19:19.494Z,15.39
2023-05-22T00:22:06.643Z,15.41
2023-05-22T00:24:53.485Z,15.40
2023-05-22T00:27:40.436Z,15.40
2023-05-22T00:30:27.295Z,15.34
2023-05-22T00:33:14.173Z,15.38
2023-05-22T00:36:01.110Z,15.28
2023-05-22T00:38:48.456Z,15.30
2023-05-22T00:41:35.507Z,15.28
2023-05-22T00:44:23.190Z,15.16
2023-05-22T00:47:10.093Z,15.19
2023-05-22T00:49:57.438Z,15.17
2023-05-22T00:52:46.472Z,15.19
2023-05-22T00:55:33.432Z,15.22
2023-05-22T00:58:21.775Z,15.23
2023-05-22T01:01:11.484Z,15.22
2023-05-22T01:03:59.383Z,15.15
2023-05-22T01:06:47.747Z,15.06
2023-05-22T01:09:34.809Z,14.97
2023-05-22T01:12:48.887Z,14.93
2023-05-22T01:15:46.010Z,14.89
2023-05-22T01:18:57.379Z,14.85
2023-05-22T01:22:21.536Z,14.78
2023-05-22T01:25:40.661Z,14.72
2023-05-22T01:28:54.796Z,14.70
2023-05-22T01:31:44.559Z,14.60
2023-05-22T01:34:34.216Z,14.62
2023-05-22T01:37:24.209Z,14.58
2023-05-22T01:40:12.317Z,14.58
2023-05-22T01:42:59.228Z,14.48
2023-05-22T01:45:46.135Z,14.44
2023-05-22T01:48:33.418Z,14.44
2023-05-22T01:51:47.579Z,14.50
2023-05-22T01:54:50.247Z,14.42
2023-05-22T01:57:47.967Z,14.35
2023-05-22T02:00:35.978Z,14.34
2023-05-22T02:03:29.135Z,14.19
2023-05-22T02:06:16.443Z,14.17
2023-05-22T02:09:03.477Z,14.06
2023-05-22T02:11:51.450Z,14.01
2023-05-22T02:14:38.672Z,13.91
2023-05-22T02:17:26.147Z,13.95
2023-05-22T02:20:15.361Z,13.85
2023-05-22T02:23:02.355Z,13.85
2023-05-22T02:25:49.207Z,13.90
2023-05-22T02:28:36.324Z,13.80
2023-05-22T02:31:23.332Z,13.73
2023-05-22T02:34:11.115Z,13.73
2023-05-22T02:37:00.045Z,13.75
2023-05-22T02:39:46.937Z,13.65
2023-05-22T02:42:34.103Z,13.57
2023-05-22T02:45:21.371Z,13.51
2023-05-22T02:48:08.281Z,13.50
2023-05-22T02:50:55.424Z,13.51
2023-05-22T02:53:42.337Z,13.49
2023-05-22T02:56:29.614Z,13.54
2023-05-22T02:59:16.637Z,13.57
2023-05-22T03:02:03.898Z,13.59
2023-05-22T03:04:50.798Z,13.57
2023-05-22T03:07:37.728Z,13.59
2023-05-22T03:10:24.926Z,13.64
2023-05-22T03:13:11.850Z,13.60
2023-05-22T03:15:59.793Z,13.54
2023-05-22T03:18:46.879Z,13.59
2023-05-22T03:21:33.768Z,13.52
2023-05-22T03:24:21.244Z,13.36
2023-05-22T03:27:08.161Z,13.37
2023-05-22T03:29:55.046Z,13.32
2023-05-22T03:32:44.945Z,13.28
2023-05-22T03:35:31.850Z,13.30
2023-05-22T03:38:18.843Z,13.41
2023-05-22T03:41:05.854Z,13.44
2023-05-22T03:43:52.744Z,13.38
2023-05-22T03:46:39.653Z,13.46
2023-05-22T03:49:26.509Z,13.51
2023-05-22T03:52:13.393Z,13.56
2023-05-22T03:55:00.434Z,13.57
2023-05-22T03:57:47.332Z,13.57
2023-05-22T04:00:34.792Z,13.68
2023-05-22T04:03:21.877Z,13.87
2023-05-22T04:06:08.969Z,13.92
2023-05-22T04:08:56.167Z,14.00
2023-05-22T04:11:43.065Z,13.97
2023-05-22T04:14:30.007Z,14.04
2023-05-22T04:17:16.959Z,14.08
2023-05-22T04:20:05.238Z,13.99
2023-05-22T04:22:52.197Z,14.02
2023-05-22T04:25:39.166Z,14.01
2023-05-22T04:28:26.735Z,14.13
2023-05-22T04:31:14.125Z,14.20
2023-05-22T04:34:01.101Z,14.24
2023-05-22T04:36:48.122Z,14.23
2023-05-22T04:39:34.956Z,14.27
2023-05-22T04:42:22.563Z,14.50
2023-05-22T04:45:09.960Z,14.58
2023-05-22T04:47:57.160Z,14.60
2023-05-22T04:50:46.319Z,14.67
2023-05-22T04:53:38.619Z,14.77
2023-05-22T04:56:36.185Z,14.72
2023-05-22T04:59:26.590Z,14.82
2023-05-22T05:02:14.203Z,14.94
2023-05-22T05:05:01.127Z,14.95
2023-05-22T05:07:50.217Z,15.00
2023-05-22T05:10:37.688Z,15.04
2023-05-22T05:13:30.580Z,15.09
2023-05-22T05:16:17.461Z,15.25
2023-05-22T05:19:04.378Z,15.28
2023-05-22T05:21:52.345Z,15.35
2023-05-22T05:24:39.384Z,15.52
2023-05-22T05:27:26.257Z,15.62
2023-05-22T05:30:13.312Z,15.70
2023-05-22T05:33:00.228Z,15.76
2023-05-22T05:35:47.199Z,15.85
2023-05-22T05:38:34.080Z,15.91
2023-05-22T05:41:21.459Z,15.96
2023-05-22T05:44:08.355Z,16.03
2023-05-22T05:46:55.401Z,16.13
2023-05-22T05:49:42.475Z,16.26
2023-05-22T05:52:32.558Z,16.42
2023-05-22T05:55:19.622Z,16.44
2023-05-22T05:58:06.526Z,16.45
2023-05-22T06:00:53.485Z,16.54
2023-05-22T06:03:40.563Z,16.67
2023-05-22T06:06:29.781Z,16.80
2023-05-22T06:09:16.994Z,16.93
2023-05-22T06:12:04.368Z,17.05
2023-05-22T06:14:51.475Z,17.15
2023-05-22T06:17:38.623Z,17.29
2023-05-22T06:20:25.491Z,17.38
2023-05-22T06:23:12.575Z,17.47
2023-05-22T06:25:59.448Z,17.49
2023-05-22T06:28:46.340Z,17.54
2023-05-22T06:31:35.452Z,17.62
2023-05-22T06:34:22.536Z,17.72
2023-05-22T06:37:09.491Z,17.75
2023-05-22T06:39:56.486Z,17.87
2023-05-22T06:42:44.732Z,17.88
2023-05-22T06:45:31.769Z,17.96
2023-05-22T06:48:18.828Z,18.01
2023-05-22T06:51:05.835Z,18.07
2023-05-22T06:53:52.729Z,18.09
2023-05-22T06:56:42.730Z,18.14
2023-05-22T06:59:30.844Z,18.19
2023-05-22T07:02:17.766Z,18.26
2023-05-22T07:05:05.154Z,18.33
2023-05-22T07:07:52.195Z,18.44
2023-05-22T07:10:39.321Z,18.58
2023-05-22T07:13:26.341Z,18.80
2023-05-22T07:16:14.720Z,18.83
2023-05-22T07:19:02.453Z,18.82
2023-05-22T07:21:49.296Z,18.91
2023-05-22T07:24:36.244Z,19.02
2023-05-22T07:27:23.108Z,19.14
2023-05-22T07:30:10.420Z,19.17
2023-05-22T07:32:57.450Z,19.24
2023-05-22T07:35:45.652Z,19.33
2023-05-22T07:38:32.521Z,19.37
2023-05-22T07:41:19.391Z,19.45
2023-05-22T07:44:06.451Z,19.53
2023-05-22T07:46:55.505Z,19.61
2023-05-22T07:49:42.405Z,19.82
2023-05-22T07:52:29.298Z,20.03
2023-05-22T07:55:16.327Z,20.12
2023-05-22T07:58:04.299Z,20.18
2023-05-22T08:00:51.236Z,20.20
2023-05-22T08:03:38.461Z,20.28
2023-05-22T08:06:25.402Z,20.39
2023-05-22T08:09:12.441Z,20.53
2023-05-22T08:11:59.337Z,20.69
2023-05-22T08:14:46.300Z,20.77
2023-05-22T08:17:33.502Z,20.91
2023-05-22T08:20:20.470Z,21.00
2023-05-22T08:23:07.491Z,21.05
2023-05-22T08:25:54.360Z,21.10
2023-05-22T08:28:44.642Z,21.11
2023-05-22T08:31:34.266Z,21.28
2023-05-22T08:34:21.225Z,21.48
2023-05-22T08:37:09.410Z,21.58
2023-05-22T08:39:56.340Z,21.69
2023-05-22T08:42:43.285Z,21.86
2023-05-22T08:45:34.072Z,21.90
2023-05-22T08:48:22.630Z,22.01
2023-05-22T08:51:15.033Z,22.13
2023-05-22T08:54:06.814Z,22.25
2023-05-22T08:56:57.144Z,22.20
2023-05-22T08:59:45.899Z,22.32
2023-05-22T09:02:33.169Z,22.39
2023-05-22T09:05:20.133Z,22.51
2023-05-22T09:08:19.025Z,22.61
2023-05-22T09:11:07.148Z,22.72
2023-05-22T09:14:07.293Z,22.78
2023-05-22T09:16:55.232Z,22.75
2023-05-22T09:19:45.894Z,22.80
2023-05-22T09:22:39.903Z,22.87
2023-05-22T09:25:27.502Z,22.82
2023-05-22T09:28:14.476Z,22.94
2023-05-22T09:31:04.143Z,22.90
2023-05-22T09:33:51.508Z,23.04
2023-05-22T09:36:38.354Z,23.08
2023-05-22T09:39:25.302Z,23.19
2023-05-22T09:42:15.078Z,23.12
2023-05-22T09:45:11.131Z,23.10
2023-05-22T09:47:58.104Z,23.16
2023-05-22T09:50:51.233Z,23.20
2023-05-22T09:53:41.128Z,23.32
2023-05-22T09:56:38.580Z,23.35
2023-05-22T09:59:30.083Z,23.38
2023-05-22T10:02:18.175Z,23.49
2023-05-22T10:05:08.246Z,23.53
2023-05-22T10:08:07.584Z,23.59
2023-05-22T10:10:54.983Z,23.56
2023-05-22T10:13:42.165Z,23.63
2023-05-22T10:16:30.255Z,23.82
2023-05-22T10:19:17.737Z,23.81
2023-05-22T10:22:06.115Z,23.76
2023-05-22T10:24:54.035Z,23.76
2023-05-22T10:27:41.630Z,23.95
2023-05-22T10:30:41.251Z,23.91
2023-05-22T10:33:34.193Z,23.95
2023-05-22T10:36:50.066Z,23.97
2023-05-22T10:39:58.301Z,24.06
2023-05-22T10:42:46.049Z,24.20
2023-05-22T10:45:33.199Z,24.20
2023-05-22T10:48:23.014Z,24.33
2023-05-22T10:51:12.539Z,24.33
2023-05-22T10:54:02.382Z,24.32
2023-05-22T10:56:49.289Z,24.45
2023-05-22T10:59:36.205Z,24.50
2023-05-22T11:02:31.372Z,24.56
2023-05-22T11:05:21.662Z,24.62
2023-05-22T11:08:32.525Z,24.60
2023-05-22T11:11:19.425Z,24.54
2023-05-22T11:14:06.433Z,24.57
2023-05-22T11:17:00.188Z,24.64
2023-05-22T11:20:06.626Z,24.61
2023-05-22T11:22:59.715Z,24.65
2023-05-22T11:25:46.700Z,24.70
2023-05-22T11:28:33.688Z,24.75
2023-05-22T11:31:23.248Z,24.85
2023-05-22T11:34:12.512Z,24.77
2023-05-22T11:37:00.176Z,24.79
2023-05-22T11:40:06.605Z,24.83
2023-05-22T11:42:53.942Z,24.79
2023-05-22T11:45:40.866Z,24.91
2023-05-22T11:48:29.061Z,25.04
2023-05-22T11:51:20.340Z,25.12
2023-05-22T11:54:07.775Z,25.07
2023-05-22T11:56:54.754Z,25.01
2023-05-22T11:59:46.852Z,25.08
2023-05-22T12:02:34.929Z,24.98
2023-05-22T12:05:21.938Z,24.85
2023-05-22T12:08:08.953Z,24.79
2023-05-22T12:10:55.970Z,24.70
2023-05-22T12:13:42.908Z,24.64
2023-05-22T12:16:36.327Z,24.54
2023-05-22T12:19:25.908Z,24.44
2023-05-22T12:22:14.165Z,24.33
2023-05-22T12:25:01.175Z,24.38
2023-05-22T12:27:48.042Z,24.59
2023-05-22T12:30:42.282Z,24.83
2023-05-22T12:33:30.658Z,24.84
2023-05-22T12:36:17.536Z,24.93
2023-05-22T12:39:09.272Z,24.94
2023-05-22T12:41:56.941Z,25.02
2023-05-22T12:44:45.863Z,24.99
2023-05-22T12:47:32.766Z,24.87
2023-05-22T12:50:19.678Z,24.81
2023-05-22T12:53:06.870Z,24.69
2023-05-22T12:55:53.780Z,24.44
2023-05-22T12:58:40.770Z,24.29
2023-05-22T13:01:27.916Z,24.25
2023-05-22T13:04:14.826Z,24.50
2023-05-22T13:07:01.729Z,24.41
2023-05-22T13:09:51.813Z,24.38
2023-05-22T13:12:38.744Z,24.53
2023-05-22T13:15:25.759Z,24.67
2023-05-22T13:18:12.883Z,24.83
2023-05-22T13:21:00.673Z,24.78
2023-05-22T13:23:47.591Z,24.71
2023-05-22T13:26:34.547Z,24.43
2023-05-22T13:29:21.516Z,24.26
2023-05-22T13:32:08.528Z,24.02
2023-05-22T13:34:55.387Z,23.82
2023-05-22T13:37:42.458Z,23.69
2023-05-22T13:40:29.369Z,23.64
2023-05-22T13:43:16.404Z,23.59
2023-05-22T13:46:04.099Z,23.52
2023-05-22T13:48:51.222Z,23.49
2023-05-22T13:51:38.134Z,23.59
2023-05-22T13:54:25.135Z,23.49
2023-05-22T13:57:11.986Z,23.40
2023-05-22T13:59:58.937Z,23.41
2023-05-22T14:02:46.511Z,23.48
2023-05-22T14:05:33.519Z,23.49
2023-05-22T14:08:20.589Z,23.49
2023-05-22T14:11:07.593Z,23.63
2023-05-22T14:13:54.616Z,23.76
2023-05-22T14:16:41.649Z,23.87
2023-05-22T14:19:28.621Z,24.11
2023-05-22T14:22:15.567Z,24.41
2023-05-22T14:25:03.032Z,24.47
2023-05-22T14:27:49.939Z,24.49
2023-05-22T14:30:37.145Z,24.59
2023-05-22T14:33:24.101Z,24.50
2023-05-22T14:36:11.032Z,24.66
2023-05-22T14:38:57.961Z,24.73
2023-05-22T14:41:44.819Z,24.81
2023-05-22T14:44:31.793Z,24.88
2023-05-22T14:47:18.680Z,24.90
2023-05-22T14:50:18.009Z,25.00
2023-05-22T14:53:06.284Z,24.99
2023-05-22T14:55:53.189Z,25.01
2023-05-22T14:58:40.261Z,24.98
2023-05-22T15:01:27.317Z,25.01
2023-05-22T15:04:14.241Z,24.95
2023-05-22T15:07:01.714Z,25.04
2023-05-22T15:09:56.326Z,25.08
2023-05-22T15:12:43.227Z,25.11
2023-05-22T15:15:30.179Z,25.07
2023-05-22T15:18:17.326Z,25.02
2023-05-22T15:21:04.418Z,25.04
2023-05-22T15:23:51.414Z,25.08
2023-05-22T15:26:38.328Z,25.08
2023-05-22T15:29:25.175Z,25.12
2023-05-22T15:32:12.110Z,25.12
2023-05-22T15:34:59.111Z,25.15
2023-05-22T15:37:46.463Z,25.00
2023-05-22T15:40:33.399Z,24.86
2023-05-22T15:43:20.601Z,24.70
2023-05-22T15:46:07.648Z,24.63
2023-05-22T15:48:54.536Z,24.55
2023-05-22T15:51:41.479Z,24.39
2023-05-22T15:54:28.344Z,24.32
2023-05-22T15:57:15.563Z,24.20
2023-05-22T16:00:02.493Z,24.22
2023-05-22T16:02:49.658Z,24.24
2023-05-22T16:05:38.852Z,24.15
2023-05-22T16:08:26.034Z,24.05
2023-05-22T16:11:13.432Z,24.05
2023-05-22T16:14:00.584Z,24.02
2023-05-22T16:16:47.676Z,24.07
2023-05-22T16:19:34.900Z,24.08
2023-05-22T16:22:22.608Z,24.10
2023-05-22T16:25:11.246Z,24.20
2023-05-22T16:27:58.204Z,24.22
2023-05-22T16:30:45.077Z,24.15
2023-05-22T16:33:32.672Z,24.07
2023-05-22T16:36:19.624Z,24.07
2023-05-22T16:39:06.567Z,24.14
2023-05-22T16:41:53.936Z,24.06
2023-05-22T16:44:40.928Z,24.07
2023-05-22T16:47:28.903Z,24.03
2023-05-22T16:50:15.842Z,24.07
2023-05-22T16:53:02.825Z,24.02
2023-05-22T16:55:49.687Z,23.97
2023-05-22T16:58:36.698Z,23.93
2023-05-22T17:01:23.787Z,23.98
2023-05-22T17:04:14.733Z,24.02
2023-05-22T17:07:01.696Z,23.84
2023-05-22T17:09:48.618Z,23.72
2023-05-22T17:12:35.607Z,23.68
2023-05-22T17:15:22.625Z,23.67
2023-05-22T17:18:09.714Z,23.58
2023-05-22T17:20:57.025Z,23.52
2023-05-22T17:23:43.969Z,23.42
2023-05-22T17:26:33.159Z,23.36
2023-05-22T17:29:20.046Z,23.25
2023-05-22T17:32:07.131Z,23.21
2023-05-22T17:34:53.953Z,23.20
2023-05-22T17:37:40.847Z,23.13
2023-05-22T17:40:40.491Z,23.16
2023-05-22T17:43:35.035Z,23.10
2023-05-22T17:46:21.924Z,23.05
2023-05-22T17:49:08.909Z,23.11
2023-05-22T17:51:55.767Z,23.01
2023-05-22T17:54:42.680Z,22.90
2023-05-22T17:57:29.592Z,22.83
2023-05-22T18:00:17.039Z,22.65
2023-05-22T18:03:03.997Z,22.50
2023-05-22T18:05:51.490Z,22.38
2023-05-22T18:08:39.966Z,22.20
2023-05-22T18:11:26.938Z,22.07
2023-05-22T18:14:13.927Z,21.94
2023-05-22T18:17:00.934Z,21.81
2023-05-22T18:19:47.764Z,21.65
2023-05-22T18:22:37.129Z,21.54
2023-05-22T18:25:24.109Z,21.42
2023-05-22T18:28:11.389Z,21.30
2023-05-22T18:30:58.304Z,21.18
2023-05-22T18:33:45.186Z,21.11
2023-05-22T18:36:32.115Z,20.98
2023-05-22T18:39:19.045Z,20.80
2023-05-22T18:42:06.419Z,20.69
2023-05-22T18:44:53.349Z,20.66
2023-05-22T18:47:40.421Z,20.63
2023-05-22T18:50:27.361Z,20.65
2023-05-22T18:53:14.209Z,20.60
2023-05-22T18:56:01.111Z,20.48
2023-05-22T18:58:47.989Z,20.37
2023-05-22T19:01:34.981Z,20.33
2023-05-22T19:04:22.054Z,20.25
2023-05-22T19:07:09.165Z,20.23
2023-05-22T19:09:56.064Z,20.22
2023-05-22T19:12:43.026Z,20.21
2023-05-22T19:15:29.907Z,20.19
2023-05-22T19:18:19.197Z,20.13
2023-05-22T19:21:06.186Z,20.09
2023-05-22T19:23:53.098Z,20.08
2023-05-22T19:26:40.013Z,20.03
2023-05-22T19:29:26.955Z,19.96
2023-05-22T19:32:14.262Z,19.92
2023-05-22T19:35:01.525Z,19.87
2023-05-22T19:37:49.379Z,19.83
2023-05-22T19:40:36.408Z,19.78
2023-05-22T19:43:23.395Z,19.72
2023-05-22T19:46:10.623Z,19.64
2023-05-22T19:48:57.503Z,19.55
2023-05-22T19:51:44.943Z,19.48
2023-05-22T19:54:31.789Z,19.41
2023-05-22T19:57:21.654Z,19.32
2023-05-22T20:00:13.351Z,19.13
2023-05-22T20:03:01.926Z,18.98
2023-05-22T20:05:52.866Z,18.97
2023-05-22T20:08:41.406Z,18.94
2023-05-22T20:11:29.147Z,18.93
2023-05-22T20:14:16.208Z,18.89
2023-05-22T20:17:04.914Z,18.83
2023-05-22T20:19:52.011Z,18.76
2023-05-22T20:22:39.031Z,18.61
2023-05-22T20:25:26.764Z,18.49
2023-05-22T20:28:14.405Z,18.48
2023-05-22T20:31:03.589Z,18.43
2023-05-22T20:33:50.563Z,18.40
2023-05-22T20:36:39.542Z,18.33
2023-05-22T20:39:28.207Z,18.29
2023-05-22T20:42:15.067Z,18.21
2023-05-22T20:45:02.285Z,18.19
2023-05-22T20:47:49.226Z,18.03
2023-05-22T20:50:39.966Z,17.92
2023-05-22T20:53:27.041Z,17.84
2023-05-22T20:56:14.046Z,17.75
2023-05-22T20:59:01.309Z,17.64
2023-05-22T21:01:48.152Z,17.62
2023-05-22T21:04:35.112Z,17.65
2023-05-22T21:07:22.337Z,17.65
2023-05-22T21:10:09.649Z,17.67
2023-05-22T21:12:56.829Z,17.62
2023-05-22T21:15:43.842Z,17.58
2023-05-22T21:18:30.779Z,17.53
2023-05-22T21:21:20.386Z,17.48
2023-05-22T21:24:10.979Z,17.39
2023-05-22T21:26:58.095Z,17.33
2023-05-22T21:29:44.972Z,17.22
2023-05-22T21:32:31.852Z,17.18
2023-05-22T21:35:18.711Z,17.16
2023-05-22T21:38:05.574Z,17.09
2023-05-22T21:40:52.433Z,17.09
2023-05-22T21:43:39.527Z,16.98
2023-05-22T21:46:26.422Z,16.80
2023-05-22T21:49:13.486Z,16.79
2023-05-22T21:52:00.512Z,16.77
2023-05-22T21:54:49.057Z,16.76
2023-05-22T21:57:36.750Z,16.77
2023-05-22T22:00:23.737Z,16.68
2023-05-22T22:03:10.652Z,16.66
2023-05-22T22:05:57.686Z,16.71
2023-05-22T22:08:44.534Z,16.69
2023-05-22T22:11:31.432Z,16.50
2023-05-22T22:14:18.921Z,16.41
2023-05-22T22:17:07.847Z,16.44
2023-05-22T22:19:56.884Z,16.37
2023-05-22T22:22:43.834Z,16.41
2023-05-22T22:25:30.717Z,16.43
2023-05-22T22:28:18.050Z,16.39
2023-05-22T22:31:05.995Z,16.33
2023-05-22T22:33:52.857Z,16.19
2023-05-22T22:36:40.072Z,16.19
2023-05-22T22:39:27.047Z,16.14
2023-05-22T22:42:19.362Z,16.11
2023-05-22T22:45:07.135Z,16.12
2023-05-22T22:47:56.511Z,16.07
2023-05-22T22:50:44.125Z,16.01
2023-05-22T22:53:31.200Z,16.03
2023-05-22T22:56:18.159Z,16.08
2023-05-22T22:59:05.009Z,16.06
2023-05-22T23:01:52.200Z,16.03
2023-05-22T23:04:39.229Z,16.02
2023-05-22T23:07:26.180Z,16.01
2023-05-22T23:10:14.182Z,16.00
2023-05-22T23:13:01.143Z,15.90
2023-05-22T23:15:48.758Z,15.86
2023-05-22T23:18:38.236Z,15.89
2023-05-22T23:21:25.135Z,15.79
2023-05-22T23:24:12.111Z,15.74
2023-05-22T23:26:59.007Z,15.75
2023-05-22T23:29:45.911Z,15.72
2023-05-22T23:32:32.774Z,15.68
2023-05-22T23:35:19.752Z,15.66
2023-05-22T23:38:06.594Z,15.64
2023-05-22T23:40:53.526Z,15.55
2023-05-22T23:43:40.456Z,15.59
2023-05-22T23:46:27.430Z,15.63
2023-05-22T23:49:14.280Z,15.57
2023-05-22T23:52:01.554Z,15.48
2023-05-22T23:54:48.427Z,15.46
2023-05-22T23:57:35.591Z,15.46
